Time;durP1;ratioP1;P1;durP2;ratioP2;P2;SDS_P1;SDS_P2;PMS_P1;PMS_P2;Temp;Humidity;BMP_temperature;BMP_pressure;BME280_temperature;BME280_humidity;BME280_pressure;Samples;Min_cycle;Max_cycle;Signal;HPM_P1;HPM_P2
2022/12/06 00:04:45;;;;;;;15.45;10.68;;;;;;;16.68;60.16;96810.88;10474365;28;20037;-30
2022/12/06 00:09:46;;;;;;;13.07;10.25;;;;;;;16.65;59.72;96808.31;10475674;28;20583;-31
2022/12/06 00:14:46;;;;;;;13.53;10.57;;;;;;;16.67;59.36;96809.19;10471671;28;20037;-29
2022/12/06 00:19:46;;;;;;;14.32;10.30;;;;;;;16.69;58.81;96802.44;10471491;28;20295;-29
2022/12/06 00:24:47;;;;;;;11.83;9.43;;;;;;;16.63;58.84;96778.81;10479364;28;20033;-30
2022/12/06 00:29:47;;;;;;;11.97;8.90;;;;;;;16.64;58.37;96777.97;10479182;28;20296;-30
2022/12/06 00:34:48;;;;;;;12.18;9.00;;;;;;;16.68;59.08;96785.59;10473022;28;20301;-29
2022/12/06 00:39:48;;;;;;;12.75;8.75;;;;;;;16.66;58.66;96787.25;10475080;28;20028;-30
2022/12/06 00:44:49;;;;;;;8.57;7.03;;;;;;;16.70;58.17;96775.50;10469983;28;20096;-29
2022/12/06 00:49:49;;;;;;;14.90;8.00;;;;;;;16.70;57.87;96768.75;10473148;28;20451;-29
2022/12/06 00:54:49;;;;;;;12.67;7.80;;;;;;;16.67;58.28;96777.13;10473458;28;20289;-29
2022/12/06 00:59:50;;;;;;;11.87;8.30;;;;;;;16.70;57.67;96767.91;10471340;28;20299;-31
2022/12/06 01:04:50;;;;;;;9.23;7.30;;;;;;;16.69;57.42;96772.09;10471186;28;20282;-29
2022/12/06 01:09:50;;;;;;;11.70;7.50;;;;;;;16.67;57.27;96773.78;10471411;28;20298;-30
2022/12/06 01:14:51;;;;;;;9.30;7.20;;;;;;;16.69;57.45;96776.34;10467347;28;20309;-29
2022/12/06 01:19:51;;;;;;;7.73;6.00;;;;;;;16.61;57.30;96763.63;10467769;28;20371;-29
2022/12/06 01:24:52;;;;;;;8.57;5.93;;;;;;;16.64;57.04;96775.44;10472561;28;20048;-30
2022/12/06 01:29:52;;;;;;;8.13;6.73;;;;;;;16.63;56.72;96782.16;10462812;28;20043;-29
2022/12/06 01:34:52;;;;;;;7.23;5.47;;;;;;;16.63;56.91;96777.09;10469962;28;20661;-29
2022/12/06 01:39:53;;;;;;;8.80;6.10;;;;;;;16.67;56.80;96768.72;10474730;28;20025;-30
2022/12/06 01:44:58;;;;;;;8.93;5.73;;;;;;;16.65;57.16;96775.47;10471218;28;20278;-30
2022/12/06 01:50:07;;;;;;;8.82;6.53;;;;;;;16.65;56.81;96770.41;10471574;28;20051;-29
2022/12/06 01:55:10;;;;;;;5.97;5.38;;;;;;;16.64;56.70;96765.34;10474843;28;20044;-29
2022/12/06 02:00:10;;;;;;;11.13;5.18;;;;;;;16.65;55.47;96759.44;10469035;28;20106;-29
2022/12/06 02:05:12;;;;;;;6.95;5.28;;;;;;;16.65;56.42;96750.19;10478676;28;20166;-29
2022/12/06 02:10:12;;;;;;;8.82;4.53;;;;;;;16.59;56.64;96747.59;10480266;28;20594;-29
2022/12/06 02:15:13;;;;;;;7.63;5.03;;;;;;;16.65;56.23;96750.19;10479739;28;20042;-29
2022/12/06 02:20:31;;;;;;;4.90;4.30;;;;;;;16.62;56.54;96745.09;10487936;28;20637;-30
2022/12/06 02:26:17;;;;;;;6.35;4.30;;;;;;;16.63;55.71;96739.19;10477718;28;20032;-31
2022/12/06 02:31:34;;;;;;;4.75;4.18;;;;;;;16.61;56.29;96738.34;10478482;28;20060;-29
2022/12/06 02:36:44;;;;;;;4.40;4.00;;;;;;;16.61;56.06;96737.50;10473482;28;20032;-30
2022/12/06 02:41:54;;;;;;;7.22;4.20;;;;;;;16.61;55.61;96733.28;10482604;28;20028;-29
2022/12/06 02:46:57;;;;;;;5.95;4.53;;;;;;;16.52;55.63;96718.06;10469459;28;20024;-30
2022/12/06 02:51:57;;;;;;;5.32;3.75;;;;;;;16.57;55.43;96716.44;10474602;28;20043;-30
2022/12/06 02:56:58;;;;;;;4.53;4.13;;;;;;;16.62;56.06;96736.69;10475905;28;20031;-30
2022/12/06 03:02:01;;;;;;;10.87;5.60;;;;;;;16.61;55.82;96738.34;10471000;28;20086;-29
2022/12/06 03:07:19;;;;;;;4.63;3.88;;;;;;;16.60;54.95;96745.94;10475302;28;20040;-29
2022/12/06 03:12:19;;;;;;;4.15;3.22;;;;;;;16.64;55.23;96740.06;10472368;28;20116;-30
2022/12/06 03:17:46;;;;;;;5.32;4.20;;;;;;;16.65;54.52;96727.44;10475459;28;20040;-29
2022/12/06 03:22:52;;;;;;;5.13;2.97;;;;;;;16.62;55.05;96732.44;10471293;28;20051;-29
2022/12/06 03:27:55;;;;;;;3.72;3.20;;;;;;;16.66;54.69;96729.13;10473379;28;20093;-29
2022/12/06 03:32:56;;;;;;;4.65;3.05;;;;;;;16.65;55.32;96729.97;10473668;28;20072;-29
2022/12/06 03:38:04;;;;;;;3.70;3.15;;;;;;;16.64;54.53;96728.28;10479900;28;20123;-31
2022/12/06 03:43:05;;;;;;;2.90;2.60;;;;;;;16.65;54.73;96724.06;10480891;28;20056;-29
2022/12/06 03:48:11;;;;;;;5.60;3.22;;;;;;;16.65;54.51;96724.91;10469245;28;20123;-30
2022/12/06 03:53:11;;;;;;;3.33;3.03;;;;;;;16.61;55.43;96725.72;10472641;28;20132;-31
2022/12/06 03:58:12;;;;;;;6.75;3.05;;;;;;;16.61;55.24;96714.78;10471595;28;20081;-30
2022/12/06 04:03:12;;;;;;;3.47;3.10;;;;;;;16.62;54.81;96717.28;10470010;28;20036;-29
2022/12/06 04:08:12;;;;;;;3.47;2.37;;;;;;;16.61;55.23;96715.59;10476567;28;20039;-29
2022/12/06 04:13:14;;;;;;;4.13;2.53;;;;;;;16.60;55.23;96716.44;10471700;28;20306;-30
2022/12/06 04:18:17;;;;;;;3.03;2.55;;;;;;;16.59;55.36;96707.16;10480586;28;20050;-29
2022/12/06 04:23:18;;;;;;;4.20;2.88;;;;;;;16.60;54.42;96701.28;10482786;28;20037;-31
2022/12/06 04:38:57;;;;;;;2.95;2.40;;;;;;;16.68;53.89;96689.53;10472766;28;20074;-29
2022/12/06 04:43:58;;;;;;;2.85;2.53;;;;;;;16.63;54.60;96680.22;10477631;28;20485;-30
2022/12/06 04:48:58;;;;;;;5.85;2.03;;;;;;;16.57;53.41;96693.69;10468935;28;20500;-30
2022/12/06 04:53:59;;;;;;;3.70;2.13;;;;;;;16.56;54.55;96679.34;10464836;28;20040;-29
2022/12/06 04:58:59;;;;;;;2.58;2.33;;;;;;;16.64;53.89;96687.84;10471272;28;20139;-30
2022/12/06 05:04:00;;;;;;;2.80;2.33;;;;;;;16.64;53.73;96674.34;10482890;28;20387;-30
2022/12/06 05:09:00;;;;;;;4.33;1.93;;;;;;;16.69;53.40;96683.63;10470506;28;20484;-30
2022/12/06 05:14:01;;;;;;;4.43;1.92;;;;;;;16.71;53.39;96683.66;10473089;28;20462;-29
2022/12/06 05:19:01;;;;;;;3.67;2.20;;;;;;;16.72;53.37;96677.75;10474917;28;20120;-28
2022/12/06 05:24:02;;;;;;;2.90;2.07;;;;;;;16.72;53.42;96680.28;10484313;28;20051;-29
2022/12/06 05:29:02;;;;;;;2.60;1.93;;;;;;;16.73;52.57;96693.78;10471674;28;20313;-30
2022/12/06 05:34:03;;;;;;;2.22;1.90;;;;;;;16.71;53.91;96686.19;10481881;28;20111;-29
2022/12/06 05:39:03;;;;;;;2.87;1.93;;;;;;;16.69;50.85;96676.06;10483958;28;20041;-30
2022/12/06 05:44:04;;;;;;;4.60;1.52;;;;;;;16.79;51.33;96678.66;10478095;28;20107;-29
2022/12/06 05:49:04;;;;;;;4.22;2.00;;;;;;;16.78;51.08;96676.97;10479134;28;20515;-29
2022/12/06 05:54:05;;;;;;;3.97;1.70;;;;;;;16.77;51.46;96674.41;10481323;28;20665;-30
2022/12/06 05:59:05;;;;;;;2.22;1.55;;;;;;;16.83;51.44;96674.47;10482199;28;20407;-29
2022/12/06 06:04:06;;;;;;;2.37;1.80;;;;;;;16.82;51.15;96673.59;10478109;28;20036;-30
2022/12/06 06:09:06;;;;;;;5.27;2.70;;;;;;;16.84;50.97;96666.88;10477109;28;20040;-30
2022/12/06 06:14:06;;;;;;;6.30;3.27;;;;;;;16.85;52.10;96670.25;10477852;28;20381;-29
2022/12/06 06:19:07;;;;;;;4.77;2.93;;;;;;;16.81;51.61;96666.03;10480705;28;20286;-29
2022/12/06 06:24:07;;;;;;;8.40;3.30;;;;;;;16.76;53.03;96662.63;10477911;28;20037;-30
2022/12/06 06:29:08;;;;;;;7.97;3.80;;;;;;;16.72;52.12;96655.88;10481600;28;20036;-29
2022/12/06 06:34:08;;;;;;;10.45;5.70;;;;;;;16.73;51.55;96655.03;10475993;28;20794;-30
2022/12/06 06:39:09;;;;;;;11.47;4.70;;;;;;;16.62;50.92;96649.03;10482505;28;20041;-29
2022/12/06 06:44:09;;;;;;;17.07;7.87;;;;;;;16.66;51.12;96649.91;10480103;28;20033;-29
2022/12/06 06:49:11;;;;;;;15.02;7.18;;;;;;;16.65;53.55;96643.16;10470936;28;20775;-29
2022/12/06 06:54:11;;;;;;;14.35;6.75;;;;;;;16.63;53.47;96647.38;10478333;28;20082;-29
2022/12/06 06:59:12;;;;;;;18.60;6.72;;;;;;;16.62;52.70;96654.09;10475882;28;20469;-29
2022/12/06 07:04:12;;;;;;;14.07;6.77;;;;;;;16.63;52.47;96648.19;10473873;28;20576;-29
2022/12/06 07:09:13;;;;;;;13.37;6.80;;;;;;;16.60;53.91;96658.31;10483687;28;20036;-29
2022/12/06 07:14:13;;;;;;;14.15;6.80;;;;;;;16.61;52.86;96659.16;10472732;28;20056;-29
2022/12/06 07:19:13;;;;;;;12.57;6.53;;;;;;;16.63;52.48;96655.78;10472719;28;20039;-30
2022/12/06 07:24:14;;;;;;;14.20;7.07;;;;;;;16.64;53.07;96662.56;10476686;28;20049;-29
2022/12/06 07:29:14;;;;;;;11.63;7.60;;;;;;;16.60;52.96;96681.06;10475869;28;20041;-29
2022/12/06 07:34:15;;;;;;;11.80;6.10;;;;;;;16.64;52.09;96667.63;10474807;28;20033;-29
2022/12/06 07:39:15;;;;;;;10.38;5.82;;;;;;;16.62;53.37;96671.78;10478455;28;20671;-29
2022/12/06 07:49:35;;;;;;;16.25;7.90;;;;;;;16.61;52.83;96669.28;10469341;28;20032;-30
2022/12/06 07:54:36;;;;;;;10.10;6.15;;;;;;;16.58;52.87;96672.63;10481332;28;20040;-29
2022/12/06 07:59:36;;;;;;;9.20;5.23;;;;;;;16.56;52.84;96679.34;10471544;28;20025;-30
2022/12/06 08:04:36;;;;;;;9.93;6.20;;;;;;;16.55;54.11;96687.75;10472158;28;20028;-30
2022/12/06 08:09:37;;;;;;;9.90;6.23;;;;;;;16.55;53.80;96692.81;10472308;28;20039;-30
2022/12/06 08:14:37;;;;;;;9.20;5.10;;;;;;;16.53;53.58;96699.53;10470085;28;20045;-29
2022/12/06 08:19:37;;;;;;;10.97;5.90;;;;;;;16.53;53.23;96697.00;10478045;28;20679;-29
2022/12/06 08:24:38;;;;;;;8.40;5.33;;;;;;;16.53;52.90;96693.66;10473766;28;20056;-29
2022/12/06 08:29:38;;;;;;;7.77;5.77;;;;;;;16.53;53.32;96694.47;10478727;28;20498;-30
2022/12/06 08:34:39;;;;;;;9.57;5.83;;;;;;;16.52;52.59;96707.94;10469125;28;20136;-30
2022/12/06 08:39:39;;;;;;;8.27;5.43;;;;;;;16.53;53.01;96703.75;10476231;28;20455;-30
2022/12/06 08:44:39;;;;;;;8.63;4.97;;;;;;;16.51;53.03;96706.25;10471795;28;20283;-29
2022/12/06 08:49:40;;;;;;;6.73;4.67;;;;;;;16.45;52.92;96695.28;10468718;28;20040;-30
2022/12/06 08:54:40;;;;;;;8.73;6.20;;;;;;;16.49;53.10;96702.88;10473509;28;20101;-29
2022/12/06 08:59:41;;;;;;;6.88;4.63;;;;;;;16.48;52.60;96706.25;10472112;28;20024;-30
2022/12/06 09:04:41;;;;;;;7.13;4.82;;;;;;;16.49;53.22;96704.56;10469069;28;20040;-30
2022/12/06 09:09:41;;;;;;;8.90;5.37;;;;;;;16.48;52.98;96706.25;10478016;28;20124;-30
2022/12/06 09:14:42;;;;;;;9.50;5.17;;;;;;;16.48;52.62;96700.34;10471257;28;20032;-30
2022/12/06 09:19:42;;;;;;;8.50;5.20;;;;;;;16.46;53.11;96691.91;10472809;28;20112;-29
2022/12/06 09:24:43;;;;;;;6.60;4.65;;;;;;;16.48;53.43;96696.16;10470269;28;20523;-30
2022/12/06 09:29:43;;;;;;;8.10;4.47;;;;;;;16.45;53.67;96696.09;10467921;28;20033;-30
2022/12/06 09:34:43;;;;;;;6.27;4.80;;;;;;;16.47;53.39;96708.75;10471234;28;20107;-31
2022/12/06 09:39:52;;;;;;;5.73;4.60;;;;;;;16.46;53.64;96696.97;10476257;28;20083;-31
2022/12/06 09:45:14;;;;;;;6.45;4.80;;;;;;;16.44;53.47;96699.47;10471895;28;20301;-29
2022/12/06 09:50:31;;;;;;;5.45;4.32;;;;;;;16.44;53.05;96703.69;10467705;28;20051;-30
2022/12/06 09:55:31;;;;;;;;;;;;;;;16.42;53.27;96691.03;10469786;28;20493;-30
2022/12/06 10:00:54;;;;;;;5.15;3.90;;;;;;;16.42;53.36;96695.22;10472009;28;19912;-30
2022/12/06 10:06:01;;;;;;;5.57;4.50;;;;;;;16.37;53.26;96684.25;10467272;28;20085;-30
2022/12/06 10:11:15;;;;;;;8.20;4.60;;;;;;;16.39;53.41;96685.97;10472127;28;20036;-29
2022/12/06 10:16:37;;;;;;;5.95;3.80;;;;;;;16.40;52.85;96685.13;10468476;28;20046;-29
2022/12/06 10:21:37;;;;;;;5.10;4.05;;;;;;;16.37;53.20;96679.22;10484010;28;20044;-29
2022/12/06 10:26:43;;;;;;;8.77;4.13;;;;;;;16.36;53.52;96672.44;10478946;28;20030;-30
2022/12/06 10:32:16;;;;;;;4.27;3.20;;;;;;;16.39;52.92;96667.44;10491604;28;20047;-29
2022/12/06 10:37:19;;;;;;;5.38;4.30;;;;;;;16.39;53.26;96663.22;10490861;28;20052;-29
2022/12/06 10:42:25;;;;;;;5.90;3.90;;;;;;;16.42;53.58;96665.78;10491008;28;20039;-29
2022/12/06 10:47:36;;;;;;;4.83;3.60;;;;;;;16.40;53.66;96664.91;10486496;28;20032;-30
2022/12/06 10:52:43;;;;;;;6.93;4.13;;;;;;;16.42;53.01;96657.34;10475487;28;20648;-29
2022/12/06 10:58:02;;;;;;;6.00;3.70;;;;;;;16.35;52.83;96648.00;10489205;28;20045;-30
2022/12/06 11:03:13;;;;;;;5.53;4.07;;;;;;;16.41;52.90;96653.97;10475905;28;20412;-29
2022/12/06 11:08:32;;;;;;;4.30;3.60;;;;;;;16.39;53.28;96648.06;10485154;28;20415;-29
2022/12/06 11:14:14;;;;;;;6.03;4.00;;;;;;;16.41;52.76;96659.03;10487913;28;20036;-30
2022/12/06 11:19:41;;;;;;;5.70;4.30;;;;;;;16.43;53.15;96647.25;10426633;28;20050;-30
2022/12/06 11:25:08;;;;;;;5.30;3.70;;;;;;;16.44;52.00;96641.34;10484642;28;20153;-29
2022/12/06 11:30:15;;;;;;;6.53;4.22;;;;;;;16.49;52.85;96642.25;10476576;28;20880;-30
2022/12/06 11:35:21;;;;;;;7.18;4.82;;;;;;;16.53;52.37;96636.34;10483370;28;20044;-29
2022/12/06 11:40:25;;;;;;;6.47;4.32;;;;;;;16.57;52.47;96633.03;10482755;28;20032;-29
2022/12/06 11:45:31;;;;;;;6.28;4.00;;;;;;;16.57;52.29;96638.09;10477891;28;20123;-30
2022/12/06 11:50:34;;;;;;;4.75;3.47;;;;;;;16.59;51.74;96636.41;10478660;28;20131;-31
2022/12/06 11:55:41;;;;;;;4.13;3.50;;;;;;;16.62;51.72;96628.00;10480892;28;20044;-31
2022/12/06 12:00:57;;;;;;;6.20;3.42;;;;;;;16.58;51.79;96623.75;10473379;28;20048;-30
2022/12/06 12:06:22;;;;;;;5.95;3.88;;;;;;;16.60;52.22;96624.63;10478811;28;20434;-29
2022/12/06 12:11:29;;;;;;;5.82;3.55;;;;;;;16.61;51.75;96617.03;10475764;28;20040;-29
2022/12/06 12:16:42;;;;;;;10.45;3.15;;;;;;;16.56;52.48;96613.66;10477940;28;20103;-30
2022/12/06 12:21:43;;;;;;;6.30;3.28;;;;;;;16.62;51.66;96608.59;10473653;28;20103;-29
2022/12/06 12:26:43;;;;;;;3.92;3.05;;;;;;;16.65;50.76;96613.69;10480813;28;20036;-29
2022/12/06 12:31:54;;;;;;;5.00;2.87;;;;;;;16.56;51.23;96608.59;10470615;28;20028;-30
2022/12/06 12:37:00;;;;;;;5.97;3.10;;;;;;;16.61;51.61;96609.44;10472793;28;20374;-29
2022/12/06 12:42:01;;;;;;;4.30;3.13;;;;;;;16.61;51.19;96613.69;10480311;28;20029;-30
2022/12/06 12:47:15;;;;;;;5.65;3.22;;;;;;;16.58;51.05;96622.06;10474651;28;20040;-30
2022/12/06 12:52:34;;;;;;;7.13;3.17;;;;;;;16.62;51.57;96617.88;10480036;28;20044;-30
2022/12/06 12:57:34;;;;;;;7.30;3.28;;;;;;;16.54;51.24;96614.47;10469372;28;20604;-30
2022/12/06 13:02:35;;;;;;;4.97;3.43;;;;;;;16.64;51.02;96612.00;10469617;28;20044;-30
2022/12/06 13:07:41;;;;;;;9.43;4.50;;;;;;;16.63;52.23;96622.94;10479860;28;20094;-31
2022/12/06 13:12:46;;;;;;;4.63;3.58;;;;;;;16.65;52.50;96628.00;10474739;28;20618;-30
2022/12/06 13:17:51;;;;;;;8.32;3.45;;;;;;;16.62;53.79;96623.78;10465583;28;20037;-30
2022/12/06 13:22:56;;;;;;;10.85;5.03;;;;;;;16.62;54.03;96628.00;10487395;28;20085;-30
2022/12/06 13:27:59;;;;;;;9.65;3.47;;;;;;;16.61;53.85;96627.13;10465304;28;20121;-30
2022/12/06 13:33:06;;;;;;;6.10;4.07;;;;;;;16.53;51.92;96613.63;10483245;28;20550;-29
2022/12/06 13:38:15;;;;;;;10.25;4.43;;;;;;;16.56;51.03;96611.13;10483033;28;20032;-30
2022/12/06 13:43:21;;;;;;;11.95;4.22;;;;;;;16.66;50.25;96617.91;10481343;28;20029;-30
2022/12/06 13:48:25;;;;;;;8.80;3.95;;;;;;;16.70;49.95;96627.19;10479191;28;20056;-29
2022/12/06 13:53:32;;;;;;;9.05;3.17;;;;;;;16.74;50.07;96623.84;10478009;28;20048;-29
2022/12/06 13:58:32;;;;;;;59.63;8.65;;;;;;;16.80;50.35;96623.88;10473968;28;20048;-30
2022/12/06 14:03:33;;;;;;;35.63;5.78;;;;;;;16.81;50.61;96620.53;10487194;28;20028;-30
2022/12/06 14:08:56;;;;;;;19.00;6.53;;;;;;;16.64;51.44;96617.06;10489645;28;20637;-30
2022/12/06 14:13:59;;;;;;;24.80;5.72;;;;;;;16.77;49.85;96616.28;10476732;28;20546;-29
2022/12/06 14:19:11;;;;;;;19.92;4.63;;;;;;;16.78;48.83;96621.34;10476402;28;20041;-31
2022/12/06 14:24:26;;;;;;;14.15;3.70;;;;;;;16.81;47.15;96612.94;10491079;28;20474;-30
2022/12/06 14:29:27;;;;;;;10.38;3.08;;;;;;;16.88;47.50;96614.63;10473282;28;20043;-29
2022/12/06 14:34:30;;;;;;;7.85;3.50;;;;;;;16.88;48.06;96622.22;10489282;28;20037;-30
2022/12/06 14:39:31;;;;;;;7.60;2.92;;;;;;;16.87;48.47;96630.66;10487070;28;20036;-29
2022/12/06 14:44:31;;;;;;;12.43;3.60;;;;;;;16.89;48.76;96624.75;10490959;28;20068;-31
2022/12/06 14:55:11;;;;;;;9.80;4.32;;;;;;;16.89;48.16;96626.47;10485868;28;20032;-29
2022/12/06 15:00:15;;;;;;;6.75;3.42;;;;;;;16.89;48.61;96629.00;10483093;28;20036;-29
2022/12/06 15:05:36;;;;;;;12.05;4.05;;;;;;;16.88;48.55;96624.75;10472884;28;20090;-30
2022/12/06 15:10:36;;;;;;;5.95;2.80;;;;;;;16.89;48.50;96629.00;10473403;28;20098;-30
2022/12/06 15:15:44;;;;;;;5.70;4.13;;;;;;;16.90;48.17;96616.34;10472081;28;20124;-29
2022/12/06 15:20:45;;;;;;;5.82;2.70;;;;;;;16.86;49.17;96616.31;10477128;28;20029;-29
2022/12/06 15:25:46;;;;;;;10.00;3.53;;;;;;;16.92;49.02;96618.88;10482534;28;20033;-30
2022/12/06 15:30:47;;;;;;;8.03;3.93;;;;;;;16.30;49.08;96625.22;10481393;28;20032;-29
2022/12/06 15:35:48;;;;;;;4.25;2.90;;;;;;;16.54;48.23;96622.06;10484786;28;20396;-30
2022/12/06 15:40:51;;;;;;;5.72;2.88;;;;;;;16.74;47.69;96623.84;10475557;28;20024;-30
2022/12/06 15:45:52;;;;;;;3.78;2.58;;;;;;;16.80;47.59;96627.25;10486252;28;20039;-30
2022/12/06 15:50:55;;;;;;;6.28;3.25;;;;;;;16.85;47.75;96627.28;10474085;28;20415;-29
2022/12/06 15:55:55;;;;;;;5.53;4.75;;;;;;;16.59;46.07;96618.72;10479616;28;20417;-29
2022/12/06 16:00:57;;;;;;;11.57;4.50;;;;;;;16.66;45.86;96617.91;10484835;28;20047;-30
2022/12/06 16:05:58;;;;;;;7.15;4.47;;;;;;;16.73;46.09;96617.13;10476411;28;20052;-30
2022/12/06 16:10:58;;;;;;;5.07;3.17;;;;;;;16.75;47.16;96606.16;10482177;28;20162;-29
2022/12/06 16:15:58;;;;;;;5.00;2.83;;;;;;;16.84;46.76;96616.28;10470794;28;20293;-30
2022/12/06 16:20:59;;;;;;;7.17;3.37;;;;;;;16.85;47.18;96607.91;10477900;28;20032;-30
2022/12/06 16:25:59;;;;;;;3.83;2.67;;;;;;;16.86;47.35;96607.06;10478943;28;20840;-30
2022/12/06 16:31:00;;;;;;;4.10;2.90;;;;;;;16.87;46.76;96608.75;10475343;28;20043;-30
2022/12/06 16:36:08;;;;;;;4.07;3.10;;;;;;;16.89;46.92;96606.22;10485032;28;20036;-30
2022/12/06 16:41:18;;;;;;;4.05;3.40;;;;;;;16.89;46.79;96603.72;10482671;28;20283;-29
2022/12/06 16:46:35;;;;;;;3.22;2.70;;;;;;;16.91;46.98;96607.09;10476384;28;20088;-30
2022/12/06 16:51:36;;;;;;;4.47;2.60;;;;;;;16.91;47.07;96604.56;10471885;28;20059;-30
2022/12/06 16:56:36;;;;;;;3.93;3.10;;;;;;;16.90;46.87;96605.41;10484145;28;20039;-30
2022/12/06 17:01:44;;;;;;;4.63;2.85;;;;;;;16.67;47.05;96607.78;10465355;28;20025;-30
2022/12/06 17:06:45;;;;;;;7.10;3.33;;;;;;;16.81;46.71;96601.13;10480893;28;20374;-30
2022/12/06 17:17:05;;;;;;;6.75;3.08;;;;;;;16.96;48.13;96610.44;10469286;28;20036;-30
2022/12/06 17:22:06;;;;;;;5.00;2.60;;;;;;;16.98;47.06;96618.91;10477390;28;20048;-30
2022/12/06 17:27:08;;;;;;;4.82;2.65;;;;;;;16.86;47.06;96593.56;10469567;28;20890;-31
2022/12/06 17:32:09;;;;;;;4.95;3.20;;;;;;;16.99;47.07;96613.00;10487797;28;20071;-30
2022/12/06 17:37:09;;;;;;;3.65;3.17;;;;;;;17.02;48.03;96620.59;10491455;28;20115;-30
2022/12/06 17:47:30;;;;;;;4.80;3.15;;;;;;;16.99;47.40;96626.50;10481985;28;20055;-30
2022/12/06 17:52:30;;;;;;;6.20;2.70;;;;;;;17.01;47.79;96631.56;10480229;28;20040;-30
2022/12/06 17:57:31;;;;;;;4.67;2.77;;;;;;;17.02;47.98;96635.78;10485171;28;20029;-29
2022/12/06 18:02:31;;;;;;;4.23;3.07;;;;;;;17.01;47.74;96627.38;10483572;28;20345;-30
2022/12/06 18:07:32;;;;;;;6.18;3.22;;;;;;;17.01;48.76;96632.44;10483184;28;20111;-30
2022/12/06 18:12:32;;;;;;;3.78;3.15;;;;;;;17.02;48.25;96633.25;10489267;28;20041;-30
2022/12/06 18:17:32;;;;;;;6.07;4.20;;;;;;;17.05;48.08;96630.72;10495991;28;20033;-29
2022/12/06 18:22:33;;;;;;;4.53;3.43;;;;;;;17.03;48.41;96632.41;10486853;28;20055;-30
2022/12/06 18:27:33;;;;;;;8.13;3.40;;;;;;;17.05;50.53;96640.84;10483748;28;20033;-29
2022/12/06 18:32:33;;;;;;;4.97;3.07;;;;;;;17.07;49.67;96641.72;10504204;28;20040;-30
2022/12/06 18:37:34;;;;;;;2.83;2.43;;;;;;;17.07;48.24;96645.06;10488911;28;20036;-30
2022/12/06 18:42:34;;;;;;;4.90;3.23;;;;;;;17.04;48.51;96644.22;10496437;28;20116;-30
2022/12/06 18:47:35;;;;;;;4.13;3.17;;;;;;;17.05;48.79;96645.91;10502373;28;20109;-29
2022/12/06 18:52:35;;;;;;;6.17;3.40;;;;;;;17.03;48.89;96647.59;10503420;28;20044;-30
2022/12/06 18:57:38;;;;;;;4.20;3.53;;;;;;;17.04;48.76;96646.75;10480355;28;20040;-30
2022/12/06 19:02:38;;;;;;;9.48;3.85;;;;;;;16.98;48.28;96649.25;10479909;28;20420;-30
2022/12/06 19:07:39;;;;;;;6.90;3.73;;;;;;;17.03;48.59;96652.63;10472087;28;20044;-31
2022/12/06 19:12:39;;;;;;;11.00;3.87;;;;;;;17.02;48.10;96645.91;10480598;28;20278;-30
2022/12/06 19:17:45;;;;;;;4.97;3.63;;;;;;;16.94;48.55;96637.44;10477726;28;20041;-29
2022/12/06 19:22:46;;;;;;;7.68;3.92;;;;;;;16.99;48.41;96656.00;10499854;28;20028;-30
2022/12/06 19:27:47;;;;;;;5.23;3.50;;;;;;;16.97;48.48;96657.66;10493322;28;20036;-31
2022/12/06 19:32:47;;;;;;;5.25;3.75;;;;;;;16.97;48.80;96647.53;10474560;28;20094;-30
2022/12/06 19:37:48;;;;;;;7.23;4.87;;;;;;;16.94;49.15;96653.47;10478845;28;20070;-30
2022/12/06 19:48:08;;;;;;;9.90;5.80;;;;;;;17.12;50.03;96657.72;10472665;28;20444;-31
2022/12/06 19:53:08;;;;;;;8.33;5.20;;;;;;;17.17;48.75;96656.09;10472820;28;20048;-29
2022/12/06 19:58:10;;;;;;;7.70;5.13;;;;;;;17.11;49.08;96645.94;10463045;28;20064;-31
2022/12/06 20:03:10;;;;;;;8.50;5.30;;;;;;;17.17;48.83;96666.19;10471235;28;20044;-29
2022/12/06 20:08:11;;;;;;;8.23;5.27;;;;;;;17.13;48.66;96655.22;10471301;28;20032;-29
2022/12/06 20:13:11;;;;;;;10.10;5.20;;;;;;;17.15;48.84;96652.72;10472321;28;20517;-29
2022/12/06 20:18:11;;;;;;;7.40;5.20;;;;;;;17.12;49.30;96657.72;10466634;28;20404;-29
2022/12/06 20:23:12;;;;;;;6.67;5.40;;;;;;;17.09;49.40;96648.44;10460739;28;20288;-30
2022/12/06 20:28:12;;;;;;;8.37;4.90;;;;;;;17.10;48.80;96641.72;10469621;28;20045;-29
2022/12/06 20:33:12;;;;;;;8.17;5.60;;;;;;;17.13;48.72;96644.25;10467583;28;20037;-29
2022/12/06 20:38:13;;;;;;;6.90;5.20;;;;;;;17.11;48.90;96645.94;10467314;28;20044;-29
2022/12/06 20:43:13;;;;;;;6.60;5.27;;;;;;;17.14;48.85;96649.31;10472009;28;20063;-29
2022/12/06 20:48:14;;;;;;;6.30;4.37;;;;;;;17.10;49.14;96634.13;10467255;28;20304;-29
2022/12/06 20:53:14;;;;;;;6.37;4.63;;;;;;;17.10;49.36;96646.78;10468277;28;20054;-29
2022/12/06 20:58:14;;;;;;;8.03;4.97;;;;;;;17.10;48.61;96634.13;10470777;28;20065;-29
2022/12/06 21:03:15;;;;;;;5.30;4.30;;;;;;;17.17;49.20;96649.31;10464299;28;20536;-31
2022/12/06 21:08:15;;;;;;;5.53;4.28;;;;;;;17.18;49.49;96632.47;10470781;28;20044;-29
2022/12/06 21:13:16;;;;;;;6.10;4.33;;;;;;;17.19;47.88;96640.06;10461715;28;20040;-30
2022/12/06 21:18:16;;;;;;;5.93;4.53;;;;;;;17.18;48.58;96637.53;10462937;28;20114;-29
2022/12/06 21:23:16;;;;;;;6.17;4.57;;;;;;;17.10;48.64;96634.13;10478943;28;20061;-29
2022/12/06 21:28:17;;;;;;;4.63;4.13;;;;;;;17.16;48.31;96651.88;10481727;28;20041;-29
2022/12/06 21:33:19;;;;;;;4.67;3.90;;;;;;;17.15;47.92;96653.53;10479109;28;20091;-30
2022/12/06 21:38:22;;;;;;;5.50;4.32;;;;;;;17.13;47.50;96639.19;10483516;28;20033;-29
2022/12/06 21:43:22;;;;;;;5.22;4.07;;;;;;;17.17;47.57;96651.03;10474543;28;20047;-29
2022/12/06 21:48:23;;;;;;;4.67;3.90;;;;;;;17.16;47.23;96654.41;10479251;28;20082;-29
2022/12/06 21:53:23;;;;;;;5.37;4.13;;;;;;;17.17;47.08;96648.50;10483010;28;20068;-29
2022/12/06 21:58:24;;;;;;;4.97;4.30;;;;;;;17.06;47.27;96652.69;10483006;28;20032;-29
2022/12/06 22:03:24;;;;;;;5.32;4.05;;;;;;;17.12;46.96;96652.69;10483014;28;20029;-29
2022/12/06 22:08:25;;;;;;;4.40;4.00;;;;;;;17.12;47.19;96662.78;10480064;28;20035;-29
2022/12/06 22:13:25;;;;;;;5.50;4.37;;;;;;;17.16;47.38;96664.50;10482920;28;20373;-29
2022/12/06 22:18:27;;;;;;;4.20;3.80;;;;;;;17.20;47.08;96671.25;10488580;28;20035;-29
2022/12/06 22:23:29;;;;;;;5.78;4.13;;;;;;;17.25;47.03;96677.19;10487941;28;20032;-30
2022/12/06 22:28:29;;;;;;;4.82;3.72;;;;;;;17.21;48.00;96667.88;10481016;28;20111;-29
2022/12/06 22:33:31;;;;;;;4.87;4.37;;;;;;;17.19;47.43;96669.56;10475187;28;20036;-28
2022/12/06 22:38:31;;;;;;;5.57;3.85;;;;;;;17.13;47.75;96659.44;10482423;28;20488;-29
2022/12/06 22:43:32;;;;;;;7.47;5.13;;;;;;;17.13;47.80;96665.34;10488943;28;20032;-29
2022/12/06 22:48:33;;;;;;;4.40;3.35;;;;;;;17.11;48.24;96666.16;10483190;28;20889;-30
2022/12/06 22:53:33;;;;;;;3.92;3.13;;;;;;;17.16;48.18;96677.16;10490594;28;20595;-29
2022/12/06 22:58:34;;;;;;;6.40;4.00;;;;;;;17.13;48.14;96662.81;10476038;28;20496;-28
2022/12/06 23:03:34;;;;;;;6.72;3.72;;;;;;;17.13;47.94;96661.94;10487740;28;20381;-29
2022/12/06 23:08:35;;;;;;;4.47;3.57;;;;;;;17.11;48.29;96664.50;10477659;28;20094;-31
2022/12/06 23:13:35;;;;;;;4.32;3.28;;;;;;;17.14;47.46;96677.16;10488476;28;20041;-29
2022/12/06 23:18:36;;;;;;;7.18;3.08;;;;;;;17.13;47.59;96674.59;10479453;28;20040;-28
2022/12/06 23:23:38;;;;;;;4.33;3.23;;;;;;;17.13;47.77;96679.66;10478167;28;20033;-29
2022/12/06 23:28:38;;;;;;;5.32;3.35;;;;;;;17.13;47.14;96680.53;10485395;28;20032;-28
2022/12/06 23:33:40;;;;;;;3.63;3.10;;;;;;;17.17;47.33;96673.78;10474375;28;20040;-29
2022/12/06 23:38:41;;;;;;;4.05;3.65;;;;;;;17.20;47.28;96671.25;10473902;28;20381;-29
2022/12/06 23:43:42;;;;;;;5.55;3.40;;;;;;;17.17;48.09;96673.78;10483254;28;20055;-29
2022/12/06 23:48:42;;;;;;;3.83;3.22;;;;;;;17.16;47.91;96684.75;10472759;28;20115;-28
2022/12/06 23:53:43;;;;;;;6.45;3.75;;;;;;;17.12;48.34;96688.09;10484124;28;20507;-29
2022/12/06 23:58:44;;;;;;;3.85;3.00;;;;;;;17.12;48.06;96673.78;10476941;28;20036;-29
